Time;durP1;ratioP1;P1;durP2;ratioP2;P2;SDS_P1;SDS_P2;PMS_P1;PMS_P2;Temp;Humidity;BMP_temperature;BMP_pressure;BME280_temperature;BME280_humidity;BME280_pressure;Samples;Min_cycle;Max_cycle;Signal;HPM_P1;HPM_P2
2021/08/30 00:00:10;;;;;;;10.82;7.90;;;;;;;19.04;95.72;99593.95;1665602;85;20211;-72
2021/08/30 00:02:36;;;;;;;8.08;7.37;;;;;;;19.00;95.94;99586.61;1648991;86;21062;-72
2021/08/30 00:05:07;;;;;;;8.78;7.95;;;;;;;19.00;95.91;99579.87;1640089;85;21022;-71
2021/08/30 00:07:34;;;;;;;8.30;7.70;;;;;;;19.02;95.84;99588.52;1632154;86;21022;-70
2021/08/30 00:10:05;;;;;;;8.23;7.53;;;;;;;19.05;95.83;99573.14;1618177;87;21541;-71
2021/08/30 00:12:31;;;;;;;9.65;7.65;;;;;;;19.08;95.69;99575.33;1660559;86;21027;-70
2021/08/30 00:15:00;;;;;;;8.45;7.58;;;;;;;19.14;95.58;99584.27;1673024;85;21085;-71
2021/08/30 00:17:28;;;;;;;9.33;7.55;;;;;;;19.17;95.34;99585.88;1650009;86;21065;-71
2021/08/30 00:19:55;;;;;;;7.80;6.90;;;;;;;19.21;95.02;99588.87;1656822;86;21032;-71
2021/08/30 00:22:23;;;;;;;7.00;6.50;;;;;;;19.23;94.76;99586.20;1650748;87;21181;-71
2021/08/30 00:24:49;;;;;;;;;;;;;;;19.23;94.24;99585.37;1657561;85;21025;-72
2021/08/30 00:27:17;;;;;;;8.80;7.30;;;;;;;19.24;94.24;99593.21;1666085;85;20116;-72
2021/08/30 00:29:44;;;;;;;8.88;6.92;;;;;;;19.21;94.17;99593.76;1655321;86;21090;-71
2021/08/30 00:32:12;;;;;;;7.95;7.17;;;;;;;19.24;93.87;99595.11;1668996;86;21563;-72
2021/08/30 00:34:38;;;;;;;;;;;;;;;19.26;93.52;99601.06;1671194;86;21300;-71
2021/08/30 00:37:06;;;;;;;7.37;6.05;;;;;;;19.29;93.36;99583.50;1683262;84;20116;-71
2021/08/30 00:39:34;;;;;;;8.10;5.85;;;;;;;19.28;93.09;99580.54;1673623;85;21010;-71
2021/08/30 00:42:00;;;;;;;;;;;;;;;19.30;92.56;99577.03;1675907;85;21046;-71
2021/08/30 00:44:27;;;;;;;6.67;5.83;;;;;;;19.28;91.83;99574.59;1667863;84;20135;-71
2021/08/30 00:46:55;;;;;;;9.20;7.25;;;;;;;19.28;91.83;99574.59;1664358;85;21126;-72
2021/08/30 00:49:21;;;;;;;7.05;6.45;;;;;;;19.32;92.23;99587.03;1670066;86;21096;-72
2021/08/30 00:51:52;;;;;;;8.83;5.95;;;;;;;19.34;92.07;99588.93;1664021;85;21045;-71
2021/08/30 00:54:20;;;;;;;9.78;6.12;;;;;;;19.36;91.81;99584.88;1664945;86;21545;-72
2021/08/30 00:56:49;;;;;;;7.35;6.55;;;;;;;19.39;91.30;99583.55;1649840;86;21586;-72
2021/08/30 00:59:15;;;;;;;7.78;5.87;;;;;;;19.42;90.98;99583.00;1671537;84;21598;-70
2021/08/30 01:01:44;;;;;;;6.42;5.90;;;;;;;19.44;90.68;99579.52;1659110;85;21061;-72
2021/08/30 01:04:13;;;;;;;8.00;5.50;;;;;;;19.46;90.42;99585.47;1658250;86;21565;-72
2021/08/30 01:07:08;;;;;;;6.42;5.92;;;;;;;19.47;90.17;99580.88;1661296;85;21107;-72
2021/08/30 01:09:46;;;;;;;8.25;5.30;;;;;;;19.48;90.22;99580.61;1662044;85;21572;-73
2021/08/30 01:12:17;;;;;;;8.48;6.45;;;;;;;19.50;90.17;99582.51;1662102;85;21576;-72
2021/08/30 01:14:54;;;;;;;7.78;7.03;;;;;;;19.51;90.03;99586.81;1663668;86;21069;-74
2021/08/30 01:17:21;;;;;;;5.87;5.35;;;;;;;19.51;89.93;99580.06;1652889;85;21031;-72
2021/08/30 01:20:12;;;;;;;8.78;5.55;;;;;;;19.53;89.61;99587.36;1667491;85;21018;-72
2021/08/30 01:22:43;;;;;;;6.25;5.70;;;;;;;19.54;89.54;99586.30;1662093;85;21055;-71
2021/08/30 01:25:16;;;;;;;7.03;5.67;;;;;;;19.55;89.20;99580.34;1663452;85;21632;-71
2021/08/30 01:27:46;;;;;;;6.25;5.75;;;;;;;19.56;89.00;99587.39;1657560;86;21115;-72
2021/08/30 01:30:21;;;;;;;10.95;5.25;;;;;;;19.56;88.68;99590.09;1656470;85;21472;-71
2021/08/30 01:32:53;;;;;;;5.92;5.28;;;;;;;19.55;88.61;99581.18;1662868;85;21103;-71
2021/08/30 01:35:25;;;;;;;6.25;4.78;;;;;;;19.54;88.52;99581.44;1686377;85;21010;-73
2021/08/30 01:37:58;;;;;;;5.78;4.92;;;;;;;19.27;88.13;99532.45;1665342;85;21006;-73
2021/08/30 01:40:28;;;;;;;5.97;5.37;;;;;;;19.54;88.18;99582.79;1691643;83;21630;-71
2021/08/30 01:42:58;;;;;;;7.65;4.95;;;;;;;19.53;88.32;99579.25;1693676;83;21026;-72
2021/08/30 01:45:31;;;;;;;5.90;5.30;;;;;;;19.52;88.19;99572.78;1684561;84;20966;-71
2021/08/30 01:48:02;;;;;;;8.38;5.97;;;;;;;19.52;88.35;99576.30;1692152;85;21074;-72
2021/08/30 01:50:30;;;;;;;7.50;5.70;;;;;;;19.53;88.42;99582.50;1694733;83;21049;-72
2021/08/30 01:53:01;;;;;;;5.90;5.40;;;;;;;19.54;88.11;99589.55;1665777;85;21094;-72
2021/08/30 01:55:42;;;;;;;6.85;5.17;;;;;;;19.54;88.26;99591.70;1647485;86;21013;-73
2021/08/30 02:03:21;;;;;;;6.50;5.78;;;;;;;19.62;88.24;99628.22;1691975;84;21700;-72
2021/08/30 02:06:01;;;;;;;6.28;5.25;;;;;;;19.67;88.34;99601.75;1680817;85;21126;-67
2021/08/30 02:08:31;;;;;;;6.58;5.55;;;;;;;19.69;88.13;99587.43;1668480;85;21085;-67
2021/08/30 02:11:03;;;;;;;7.78;5.37;;;;;;;19.62;87.75;99593.88;1663941;86;21009;-67
2021/08/30 02:16:18;;;;;;;6.45;5.95;;;;;;;19.52;88.11;99604.67;1873302;75;22813;-68
2021/08/30 02:19:05;;;;;;;6.67;6.08;;;;;;;19.41;88.54;99614.63;1854007;75;21067;-68
2021/08/30 02:21:42;;;;;;;6.37;5.67;;;;;;;19.39;88.64;99619.48;1833190;75;21009;-67
2021/08/30 02:24:26;;;;;;;7.03;5.65;;;;;;;19.37;88.70;99620.29;1804494;76;21051;-69
2021/08/30 02:27:42;;;;;;;6.28;5.78;;;;;;;19.35;88.68;99625.15;1808334;78;21043;-71
2021/08/30 02:30:17;;;;;;;7.75;4.80;;;;;;;19.35;88.56;99630.55;1805287;78;21044;-71
2021/08/30 02:32:47;;;;;;;6.55;5.58;;;;;;;19.35;88.41;99650.02;1806436;78;20992;-71
2021/08/30 02:35:16;;;;;;;7.33;5.70;;;;;;;19.33;88.37;99647.56;1799235;77;21520;-72
2021/08/30 02:37:43;;;;;;;8.55;5.78;;;;;;;19.35;88.13;99645.96;1799128;78;21028;-71
2021/08/30 02:40:11;;;;;;;6.12;5.53;;;;;;;19.37;87.84;99638.41;1798533;78;21011;-71
2021/08/30 02:42:41;;;;;;;6.75;6.00;;;;;;;19.37;87.34;99639.75;1798284;78;20981;-71
2021/08/30 02:45:10;;;;;;;6.28;5.55;;;;;;;19.37;87.36;99639.75;1786814;78;21018;-72
2021/08/30 02:47:39;;;;;;;7.22;6.20;;;;;;;19.36;87.51;99642.16;1775655;78;21096;-72
2021/08/30 02:50:08;;;;;;;5.72;5.22;;;;;;;19.34;87.25;99638.92;1762244;78;21589;-71
2021/08/30 02:52:38;;;;;;;5.65;5.17;;;;;;;19.34;87.16;99636.22;1776449;78;21012;-72
2021/08/30 02:55:08;;;;;;;7.35;5.67;;;;;;;19.32;87.04;99640.52;1776421;78;21008;-71
2021/08/30 02:57:35;;;;;;;5.83;5.17;;;;;;;19.30;86.81;99648.63;1779374;79;20945;-71
2021/08/30 03:00:04;;;;;;;10.15;5.67;;;;;;;19.29;86.88;99633.48;1777711;79;20989;-73
2021/08/30 03:02:30;;;;;;;5.03;4.53;;;;;;;19.27;86.69;99632.42;1773023;79;21013;-73
2021/08/30 03:04:59;;;;;;;7.10;5.92;;;;;;;19.26;86.66;99635.64;1775093;79;21470;-72
2021/08/30 03:07:32;;;;;;;5.58;5.12;;;;;;;19.24;86.54;99634.28;1768409;79;21000;-72
2021/08/30 03:09:59;;;;;;;7.35;5.30;;;;;;;19.24;86.44;99634.28;1778371;79;21052;-72
2021/08/30 03:12:29;;;;;;;11.20;5.67;;;;;;;19.22;86.31;99626.44;1797804;78;21012;-72
2021/08/30 03:15:02;;;;;;;7.70;4.97;;;;;;;19.23;86.35;99625.89;1814526;78;21004;-73
2021/08/30 03:17:31;;;;;;;9.18;5.40;;;;;;;19.22;86.25;99622.38;1794466;78;21077;-71
2021/08/30 03:19:58;;;;;;;5.72;5.30;;;;;;;19.22;86.12;99625.09;1808429;78;21012;-71
2021/08/30 03:22:25;;;;;;;11.53;5.65;;;;;;;19.20;86.04;99620.48;1809563;78;21314;-72
2021/08/30 03:24:54;;;;;;;5.70;5.30;;;;;;;19.19;85.99;99624.28;1763129;79;21009;-72
2021/08/30 03:27:22;;;;;;;6.80;5.17;;;;;;;19.19;85.91;99625.63;1766608;79;21021;-72
2021/08/30 03:29:49;;;;;;;6.40;5.72;;;;;;;19.19;85.70;99624.28;1764791;79;21131;-72
2021/08/30 03:32:17;;;;;;;6.17;5.08;;;;;;;19.18;85.84;99625.89;1779898;79;21000;-72
2021/08/30 03:34:44;;;;;;;5.75;5.17;;;;;;;19.19;85.79;99626.98;1755519;79;21064;-72
2021/08/30 03:37:12;;;;;;;5.95;5.33;;;;;;;19.22;85.74;99628.33;1769214;80;21047;-72
2021/08/30 03:39:41;;;;;;;6.53;5.37;;;;;;;19.23;85.76;99625.38;1766942;80;21012;-72
2021/08/30 03:42:08;;;;;;;6.17;5.42;;;;;;;19.30;85.76;99631.88;1756551;80;21003;-72
2021/08/30 03:44:36;;;;;;;6.37;5.62;;;;;;;18.98;85.32;99567.17;1765768;80;20992;-73
2021/08/30 03:47:06;;;;;;;5.90;5.40;;;;;;;19.39;84.78;99629.49;1792224;78;21471;-72
2021/08/30 03:49:35;;;;;;;9.80;6.08;;;;;;;19.43;84.80;99625.17;1793738;78;21045;-72
2021/08/30 03:52:05;;;;;;;8.68;6.20;;;;;;;19.47;84.67;99624.92;1788153;78;21653;-73
2021/08/30 03:54:31;;;;;;;7.47;4.83;;;;;;;19.53;84.54;99631.95;1794013;78;21060;-73
2021/08/30 03:56:58;;;;;;;9.78;5.30;;;;;;;19.58;83.93;99622.52;1720379;80;21499;-71
2021/08/30 03:59:27;;;;;;;9.20;5.78;;;;;;;19.61;83.72;99621.20;1693302;84;21494;-72
2021/08/30 04:01:54;;;;;;;9.30;5.40;;;;;;;19.61;83.19;99623.36;1739081;80;21156;-73
2021/08/30 04:04:23;;;;;;;6.05;5.62;;;;;;;19.63;83.21;99619.84;1751069;81;20985;-73
2021/08/30 04:06:52;;;;;;;7.28;6.60;;;;;;;19.66;83.07;99606.33;1781301;79;21080;-72
2021/08/30 04:09:20;;;;;;;5.50;5.10;;;;;;;19.73;82.77;99619.09;1729061;82;21000;-72
2021/08/30 04:11:48;;;;;;;6.90;5.75;;;;;;;19.81;82.40;99619.91;1769984;79;21054;-73
2021/08/30 04:14:16;;;;;;;9.23;5.50;;;;;;;19.90;81.83;99624.81;1766985;80;21004;-71
2021/08/30 04:16:47;;;;;;;7.90;6.20;;;;;;;20.05;81.05;99632.15;1748842;80;21096;-72
2021/08/30 04:19:16;;;;;;;6.30;5.67;;;;;;;20.15;80.25;99631.59;1780531;79;21113;-72
2021/08/30 04:21:43;;;;;;;10.45;5.78;;;;;;;20.25;79.92;99632.17;1771537;79;21112;-72
2021/08/30 04:24:11;;;;;;;8.70;6.40;;;;;;;20.35;79.45;99629.45;1685628;81;21581;-71
2021/08/30 04:26:39;;;;;;;7.62;5.75;;;;;;;20.39;78.82;99623.77;1714632;82;21529;-72
2021/08/30 04:29:05;;;;;;;6.33;5.67;;;;;;;20.38;78.82;99616.75;1688899;83;21054;-66
2021/08/30 04:31:33;;;;;;;7.47;5.80;;;;;;;20.42;78.87;99615.67;1715391;82;20976;-66
2021/08/30 04:34:00;;;;;;;7.87;5.47;;;;;;;20.54;78.40;99615.38;1699570;82;21008;-64
2021/08/30 04:36:28;;;;;;;6.00;5.40;;;;;;;20.61;77.83;99611.90;1676385;84;21463;-64
2021/08/30 04:38:55;;;;;;;9.03;5.83;;;;;;;20.74;77.90;99606.47;1678254;84;21460;-64
2021/08/30 04:41:21;;;;;;;12.40;6.42;;;;;;;21.08;77.28;99616.13;1672538;84;21592;-66
2021/08/30 04:43:51;;;;;;;12.78;5.45;;;;;;;21.49;75.95;99617.89;1677034;84;21066;-65
2021/08/30 04:46:18;;;;;;;11.00;6.65;;;;;;;21.77;74.04;99619.11;1726009;81;20996;-65
2021/08/30 04:48:47;;;;;;;10.72;5.67;;;;;;;21.87;73.18;99627.20;1740060;81;21003;-64
2021/08/30 04:51:18;;;;;;;9.93;6.22;;;;;;;21.93;72.40;99614.41;1738707;81;21493;-65
2021/08/30 04:53:45;;;;;;;7.17;5.37;;;;;;;22.05;72.42;99620.84;1740951;81;21048;-64
2021/08/30 04:56:12;;;;;;;8.33;6.50;;;;;;;22.39;70.43;99635.01;1724869;81;21005;-65
2021/08/30 04:58:39;;;;;;;12.35;6.78;;;;;;;22.53;69.52;99653.08;1708515;82;21510;-66
2021/08/30 05:01:05;;;;;;;8.35;6.20;;;;;;;22.53;68.78;99654.44;1708765;82;21062;-66
2021/08/30 05:03:31;;;;;;;8.93;6.72;;;;;;;22.45;68.61;99658.30;1714106;82;20974;-66
2021/08/30 05:05:57;;;;;;;8.33;6.53;;;;;;;22.39;67.79;99660.80;1714867;82;21047;-66
2021/08/30 05:08:23;;;;;;;;;;;;;;;22.22;68.05;99644.32;1716878;82;21058;-65
2021/08/30 05:10:49;;;;;;;12.80;7.00;;;;;;;22.01;68.78;99612.45;1714652;82;20130;-67
2021/08/30 05:13:15;;;;;;;11.50;7.30;;;;;;;21.77;69.06;99578.42;1685961;83;21100;-64
2021/08/30 05:15:43;;;;;;;15.48;6.83;;;;;;;21.50;69.91;99595.13;1683597;84;21152;-73
2021/08/30 05:18:11;;;;;;;7.53;6.53;;;;;;;21.20;71.32;99605.78;1699789;84;21311;-73
2021/08/30 05:20:38;;;;;;;7.08;5.78;;;;;;;21.05;72.09;99620.73;1696494;84;21630;-73
2021/08/30 05:23:04;;;;;;;;;;;;;;;21.08;72.61;99635.09;1708893;84;20999;-73
2021/08/30 05:25:34;;;;;;;7.08;5.42;;;;;;;21.33;72.57;99637.46;1741420;81;20115;-72
2021/08/30 05:28:01;;;;;;;10.68;6.03;;;;;;;21.70;72.28;99635.70;1742306;81;21038;-74
2021/08/30 05:30:27;;;;;;;8.58;5.42;;;;;;;22.20;70.46;99636.20;1726255;81;20967;-74
2021/08/30 05:32:53;;;;;;;7.30;5.80;;;;;;;22.56;68.95;99640.83;1716914;83;21051;-73
2021/08/30 05:35:20;;;;;;;7.17;5.75;;;;;;;22.67;68.04;99632.84;1690432;83;21521;-73
2021/08/30 05:37:46;;;;;;;13.55;6.92;;;;;;;22.76;67.13;99632.25;1697934;82;21063;-71
2021/08/30 05:40:14;;;;;;;6.58;5.90;;;;;;;22.93;66.83;99617.67;1699749;82;20999;-71
2021/08/30 05:42:40;;;;;;;6.75;6.10;;;;;;;23.00;66.46;99611.87;1718554;82;21138;-74
2021/08/30 05:45:08;;;;;;;8.95;6.85;;;;;;;23.07;65.66;99629.48;1729620;81;20981;-73
2021/08/30 05:47:34;;;;;;;8.93;7.22;;;;;;;23.09;65.12;99620.52;1748074;81;22275;-72
2021/08/30 05:50:00;;;;;;;9.60;7.85;;;;;;;23.15;64.70;99620.44;1742968;81;21036;-74
2021/08/30 05:52:26;;;;;;;10.78;8.20;;;;;;;23.04;64.20;99619.20;1739083;81;21023;-73
2021/08/30 05:54:53;;;;;;;17.85;7.70;;;;;;;22.90;64.53;99617.67;1746440;81;21514;-71
2021/08/30 05:57:19;;;;;;;13.20;7.17;;;;;;;22.96;64.44;99608.92;1735335;81;21026;-72
2021/08/30 05:59:46;;;;;;;25.88;7.83;;;;;;;23.19;63.53;99598.36;1738224;81;21567;-72
2021/08/30 06:02:12;;;;;;;10.78;7.47;;;;;;;23.41;63.70;99600.55;1743575;81;21125;-73
2021/08/30 06:04:38;;;;;;;10.18;6.30;;;;;;;23.50;63.87;99602.88;1746296;81;21512;-73
2021/08/30 06:07:04;;;;;;;14.33;7.40;;;;;;;23.47;62.79;99607.00;1746065;81;21047;-72
2021/08/30 06:09:31;;;;;;;8.98;6.90;;;;;;;23.38;62.89;99601.95;1719502;82;21015;-74
2021/08/30 06:11:57;;;;;;;7.92;6.55;;;;;;;23.37;62.56;99601.68;1721243;82;21511;-73
2021/08/30 06:14:24;;;;;;;8.85;7.03;;;;;;;23.28;62.87;99596.63;1696523;83;21521;-75
2021/08/30 06:16:50;;;;;;;10.65;7.05;;;;;;;23.37;62.77;99591.36;1718081;81;21584;-72
2021/08/30 06:19:16;;;;;;;10.10;6.37;;;;;;;23.59;61.68;99594.33;1708857;83;21023;-73
2021/08/30 06:21:44;;;;;;;9.20;7.40;;;;;;;23.78;60.67;99595.70;1725957;82;21495;-74
2021/08/30 06:24:10;;;;;;;13.85;6.95;;;;;;;23.82;60.65;99594.59;1747680;82;20981;-74
2021/08/30 06:26:37;;;;;;;9.20;6.90;;;;;;;23.80;59.98;99577.19;1756404;80;22253;-72
2021/08/30 06:29:04;;;;;;;8.73;7.30;;;;;;;23.95;59.90;99572.63;1756408;81;21108;-75
2021/08/30 06:31:31;;;;;;;16.40;7.12;;;;;;;24.00;59.25;99577.44;1756242;82;21043;-74
2021/08/30 06:33:57;;;;;;;12.30;8.73;;;;;;;24.02;59.62;99575.79;1760608;80;20982;-73
2021/08/30 06:36:25;;;;;;;13.15;8.08;;;;;;;24.18;58.83;99581.78;1768465;80;21022;-72
2021/08/30 06:38:54;;;;;;;9.75;7.50;;;;;;;24.34;58.40;99570.90;1735350;81;21505;-72
2021/08/30 06:41:23;;;;;;;15.10;7.00;;;;;;;24.45;58.18;99568.81;1757185;81;20971;-73
2021/08/30 06:43:49;;;;;;;12.65;7.95;;;;;;;24.61;57.36;99564.72;1804306;78;21104;-75
2021/08/30 06:46:17;;;;;;;9.50;7.53;;;;;;;24.72;57.51;99567.27;1795182;79;20993;-73
2021/08/30 06:48:45;;;;;;;13.83;8.25;;;;;;;24.80;56.57;99570.64;1786235;80;21008;-75
2021/08/30 06:51:14;;;;;;;10.70;7.90;;;;;;;24.96;56.21;99565.16;1792960;79;20957;-73
2021/08/30 06:53:41;;;;;;;17.02;7.75;;;;;;;25.11;55.77;99578.21;1791445;79;20978;-73
2021/08/30 06:56:08;;;;;;;11.08;7.53;;;;;;;25.20;55.14;99570.94;1792951;79;20992;-77
2021/08/30 06:58:35;;;;;;;11.78;8.50;;;;;;;25.21;55.78;99573.92;1792066;79;20966;-74
2021/08/30 07:01:03;;;;;;;10.65;8.28;;;;;;;25.22;55.56;99578.25;1778337;80;21013;-75
2021/08/30 07:03:31;;;;;;;10.32;7.75;;;;;;;25.20;55.08;99569.04;1758631;80;21009;-73
2021/08/30 07:05:58;;;;;;;15.38;8.65;;;;;;;25.08;55.06;99570.66;1699313;83;21570;-75
2021/08/30 07:08:24;;;;;;;10.08;8.10;;;;;;;24.83;55.10;99568.69;1704748;83;21452;-73
2021/08/30 07:10:50;;;;;;;14.40;8.08;;;;;;;24.58;55.79;99573.51;1682733;83;21053;-73
2021/08/30 07:13:16;;;;;;;15.43;7.85;;;;;;;24.41;56.47;99573.22;1686421;83;21025;-73
2021/08/30 07:15:42;;;;;;;15.85;8.23;;;;;;;24.24;57.24;99568.33;1722190;83;21060;-74
2021/08/30 07:18:09;;;;;;;14.28;8.33;;;;;;;24.16;57.50;99561.66;1679775;83;21064;-73
2021/08/30 07:20:35;;;;;;;10.08;8.28;;;;;;;24.11;58.09;99564.48;1763269;80;21560;-72
2021/08/30 07:23:02;;;;;;;12.43;7.60;;;;;;;24.12;58.47;99552.47;1752476;80;21068;-70
2021/08/30 07:25:28;;;;;;;12.07;7.90;;;;;;;24.20;58.47;99576.28;1714740;82;21282;-69
2021/08/30 07:27:54;;;;;;;8.35;7.58;;;;;;;24.21;57.83;99564.30;1707452;82;21072;-69
2021/08/30 07:30:21;;;;;;;9.45;7.90;;;;;;;24.16;57.97;99579.35;1733066;81;21017;-71
2021/08/30 07:32:48;;;;;;;9.38;7.55;;;;;;;24.12;58.26;99567.45;1713472;82;21056;-72
2021/08/30 07:35:15;;;;;;;10.45;8.50;;;;;;;24.05;58.45;99562.92;1730755;81;21076;-70
2021/08/30 07:37:42;;;;;;;13.83;8.68;;;;;;;24.04;58.36;99565.41;1701985;83;21168;-71
2021/08/30 07:40:10;;;;;;;12.00;8.28;;;;;;;24.04;58.50;99566.77;1714825;82;21015;-71
2021/08/30 07:42:37;;;;;;;11.50;8.55;;;;;;;24.06;58.44;99559.12;1715992;82;21021;-70
2021/08/30 07:45:03;;;;;;;13.32;8.60;;;;;;;24.09;57.96;99557.14;1721418;82;21299;-71
2021/08/30 07:47:30;;;;;;;9.50;8.43;;;;;;;24.16;57.85;99545.32;1746172;81;21395;-71
2021/08/30 07:49:56;;;;;;;11.45;9.48;;;;;;;24.25;57.79;99540.81;1725351;82;20989;-71
2021/08/30 07:52:22;;;;;;;12.18;9.08;;;;;;;24.32;57.81;99560.03;1781064;80;21533;-71
2021/08/30 07:54:50;;;;;;;9.63;8.60;;;;;;;24.39;56.92;99555.84;1779732;80;21077;-70
2021/08/30 07:57:16;;;;;;;10.05;8.30;;;;;;;24.44;55.94;99540.75;1780503;80;21001;-71
2021/08/30 07:59:43;;;;;;;11.12;9.45;;;;;;;24.46;55.82;99554.07;1778593;80;21452;-70
2021/08/30 08:02:09;;;;;;;10.15;7.72;;;;;;;24.40;55.83;99558.80;1780645;80;21593;-71
2021/08/30 08:04:35;;;;;;;13.38;8.65;;;;;;;24.36;56.24;99556.98;1781046;80;21468;-70
2021/08/30 08:07:02;;;;;;;9.55;8.70;;;;;;;24.33;56.55;99564.39;1780817;80;21048;-71
2021/08/30 08:09:28;;;;;;;13.22;9.33;;;;;;;24.27;56.79;99537.23;1780677;80;21002;-70
2021/08/30 08:11:54;;;;;;;13.62;8.60;;;;;;;24.22;57.02;99551.48;1776191;80;21092;-71
2021/08/30 08:14:24;;;;;;;12.65;8.18;;;;;;;24.17;57.72;99552.95;1767889;80;21663;-70
2021/08/30 08:16:50;;;;;;;9.70;8.60;;;;;;;24.14;57.73;99550.26;1767495;80;21094;-70
2021/08/30 08:19:16;;;;;;;13.83;8.68;;;;;;;24.12;58.12;99552.47;1760730;80;21607;-70
2021/08/30 08:21:43;;;;;;;10.30;8.23;;;;;;;24.20;58.10;99540.89;1765549;80;21108;-71
2021/08/30 08:24:10;;;;;;;9.08;8.18;;;;;;;24.23;57.73;99545.75;1764424;81;20977;-70
2021/08/30 08:26:38;;;;;;;10.75;8.83;;;;;;;24.23;57.91;99542.23;1764958;80;21044;-70
2021/08/30 08:29:05;;;;;;;9.45;8.03;;;;;;;24.21;57.75;99541.72;1764645;81;21044;-69
2021/08/30 08:31:31;;;;;;;10.55;8.95;;;;;;;24.22;57.87;99531.90;1765336;80;21017;-70
2021/08/30 08:33:57;;;;;;;8.95;8.15;;;;;;;24.21;57.95;99535.71;1765363;80;21056;-71
2021/08/30 08:36:26;;;;;;;12.30;9.05;;;;;;;24.25;58.10;99523.11;1765062;80;20987;-70
2021/08/30 08:38:52;;;;;;;9.08;8.18;;;;;;;24.30;58.08;99537.20;1765069;80;20975;-70
2021/08/30 08:41:18;;;;;;;11.60;9.18;;;;;;;24.36;57.97;99529.20;1765293;80;20994;-69
2021/08/30 08:43:46;;;;;;;12.03;7.95;;;;;;;24.44;57.66;99527.13;1762764;80;21475;-70
2021/08/30 08:46:12;;;;;;;10.98;8.73;;;;;;;24.48;57.80;99530.06;1765179;80;21002;-70
2021/08/30 08:48:40;;;;;;;9.90;8.88;;;;;;;24.51;57.40;99521.30;1764737;80;21065;-70
2021/08/30 08:51:06;;;;;;;9.20;8.40;;;;;;;24.51;57.43;99522.66;1766650;80;21421;-71
2021/08/30 08:53:33;;;;;;;12.68;9.68;;;;;;;24.52;57.29;99507.95;1768162;80;21002;-71
2021/08/30 08:55:59;;;;;;;13.45;8.78;;;;;;;24.57;56.78;99510.58;1772681;79;20977;-71
2021/08/30 08:58:26;;;;;;;12.30;7.85;;;;;;;24.58;56.40;99513.58;1780867;79;21437;-71
2021/08/30 09:01:10;;;;;;;10.30;9.20;;;;;;;24.61;56.06;99517.04;1780715;79;20970;-71
2021/08/30 09:03:45;;;;;;;10.93;9.20;;;;;;;24.68;56.13;99532.44;1772980;79;20942;-71
2021/08/30 09:06:13;;;;;;;8.88;7.97;;;;;;;24.77;55.97;99531.19;1772595;79;21025;-70
2021/08/30 09:08:43;;;;;;;14.73;10.05;;;;;;;24.84;55.77;99530.20;1759173;80;20938;-70
2021/08/30 09:11:22;;;;;;;13.78;9.70;;;;;;;24.85;55.62;99531.03;1770267;79;20966;-72
2021/08/30 09:13:56;;;;;;;12.40;9.40;;;;;;;24.85;55.16;99518.20;1773477;80;20966;-70
2021/08/30 09:16:26;;;;;;;12.40;8.95;;;;;;;24.86;55.19;99526.65;1771516;79;21068;-70
2021/08/30 09:19:07;;;;;;;16.32;8.25;;;;;;;24.85;55.37;99529.11;1770396;79;21001;-71
2021/08/30 09:21:43;;;;;;;11.65;9.58;;;;;;;24.85;55.57;99520.13;1784234;79;21017;-71
2021/08/30 09:24:13;;;;;;;14.78;9.05;;;;;;;24.89;55.45;99523.06;1783601;80;21027;-71
2021/08/30 09:26:46;;;;;;;9.38;8.48;;;;;;;24.92;55.40;99519.71;1783123;79;21006;-71
2021/08/30 09:29:23;;;;;;;10.98;9.08;;;;;;;24.93;55.26;99509.88;1784168;80;21510;-70
2021/08/30 09:32:05;;;;;;;11.75;8.75;;;;;;;24.96;55.21;99503.83;1780469;80;21037;-71
2021/08/30 09:34:39;;;;;;;11.90;9.23;;;;;;;24.95;55.36;99498.11;1783017;79;21533;-72
2021/08/30 09:37:17;;;;;;;10.55;9.35;;;;;;;24.97;55.57;99488.27;1775740;79;21418;-71
2021/08/30 09:39:48;;;;;;;21.15;9.83;;;;;;;24.99;55.12;99492.29;1777965;80;20982;-70
2021/08/30 09:42:15;;;;;;;11.65;9.18;;;;;;;25.02;55.14;99493.05;1784322;80;20994;-69
2021/08/30 09:44:42;;;;;;;13.50;8.68;;;;;;;25.11;54.86;99507.31;1784334;80;21018;-70
2021/08/30 09:47:17;;;;;;;15.35;10.30;;;;;;;25.19;54.44;99506.62;1783935;79;21458;-70
2021/08/30 09:49:51;;;;;;;13.85;9.70;;;;;;;25.25;53.99;99493.14;1782529;79;21172;-74
2021/08/30 09:52:22;;;;;;;11.85;9.08;;;;;;;25.25;53.93;99489.05;1783654;79;21052;-73
2021/08/30 09:54:51;;;;;;;11.80;9.03;;;;;;;25.27;54.02;99496.37;1784025;80;21025;-70
2021/08/30 09:57:19;;;;;;;14.63;9.90;;;;;;;25.28;54.09;99493.91;1780443;79;20954;-72
2021/08/30 09:59:46;;;;;;;10.48;9.45;;;;;;;25.36;53.93;99468.61;1782116;80;21013;-71
2021/08/30 10:02:16;;;;;;;18.67;9.25;;;;;;;25.41;53.66;99466.31;1784020;79;21439;-70
2021/08/30 10:04:44;;;;;;;11.08;8.95;;;;;;;25.44;53.36;99492.98;1779723;80;21037;-70
2021/08/30 10:07:13;;;;;;;15.30;10.45;;;;;;;25.47;53.28;99495.65;1779084;79;21021;-70
2021/08/30 10:09:41;;;;;;;18.17;9.70;;;;;;;25.51;53.52;99485.75;1781738;79;21545;-70
2021/08/30 10:12:08;;;;;;;12.35;9.60;;;;;;;25.56;53.65;99486.98;1780699;79;20953;-70
2021/08/30 10:14:36;;;;;;;10.63;9.10;;;;;;;25.64;53.60;99499.90;1780668;79;20970;-70
2021/08/30 10:17:07;;;;;;;9.50;8.55;;;;;;;25.75;53.19;99506.73;1783164;79;20926;-69
2021/08/30 10:19:36;;;;;;;10.53;9.00;;;;;;;25.83;53.02;99512.00;1782757;79;21506;-71
2021/08/30 10:22:17;;;;;;;15.75;9.78;;;;;;;25.88;52.94;99506.96;1784232;80;20981;-70
2021/08/30 10:24:44;;;;;;;12.58;9.30;;;;;;;25.88;52.99;99506.96;1784380;79;21041;-72
2021/08/30 10:27:18;;;;;;;14.23;8.93;;;;;;;25.86;53.38;99513.30;1780301;80;21048;-70
2021/08/30 10:29:44;;;;;;;8.53;7.78;;;;;;;25.85;53.44;99508.40;1762518;80;21029;-69
2021/08/30 10:32:30;;;;;;;11.03;8.73;;;;;;;25.87;53.54;99509.45;1780327;79;20966;-70
2021/08/30 10:34:57;;;;;;;11.38;8.85;;;;;;;25.86;53.45;99501.01;1779572;79;20985;-73
2021/08/30 10:37:23;;;;;;;10.72;8.93;;;;;;;25.86;53.82;99492.81;1773065;79;20954;-72
2021/08/30 10:39:54;;;;;;;11.65;8.83;;;;;;;25.92;53.86;99499.79;1784346;80;21035;-71
2021/08/30 10:42:22;;;;;;;11.20;9.23;;;;;;;25.97;53.70;99494.20;1782241;79;21085;-70
2021/08/30 10:44:56;;;;;;;14.20;8.83;;;;;;;26.03;53.82;99491.59;1782069;79;21485;-70
2021/08/30 10:47:27;;;;;;;16.73;9.48;;;;;;;26.10;53.62;99501.52;1783282;79;21009;-70
2021/08/30 10:49:54;;;;;;;12.28;9.18;;;;;;;26.19;53.46;99485.19;1775594;79;21017;-72
2021/08/30 10:52:20;;;;;;;9.53;8.03;;;;;;;26.27;53.69;99488.52;1777461;79;20966;-73
2021/08/30 10:54:56;;;;;;;11.12;9.68;;;;;;;26.35;53.29;99495.14;1783950;79;21550;-72
2021/08/30 10:57:38;;;;;;;13.58;9.40;;;;;;;26.41;53.40;99478.88;1774719;80;21514;-70
2021/08/30 11:00:08;;;;;;;16.35;9.58;;;;;;;26.47;53.17;99472.70;1774173;80;21439;-71
2021/08/30 11:02:41;;;;;;;16.62;10.58;;;;;;;26.47;52.31;99483.06;1783253;79;21548;-72
2021/08/30 11:05:09;;;;;;;16.07;10.88;;;;;;;26.42;52.02;99488.09;1784707;80;20974;-70
2021/08/30 11:07:37;;;;;;;15.30;11.53;;;;;;;26.44;51.85;99490.52;1782097;80;21050;-71
2021/08/30 11:10:06;;;;;;;19.23;11.73;;;;;;;26.35;51.04;99485.03;1764788;80;20954;-71
2021/08/30 11:12:35;;;;;;;12.85;10.75;;;;;;;26.32;51.35;99482.92;1781609;80;21030;-71
2021/08/30 11:15:04;;;;;;;14.50;10.68;;;;;;;26.29;51.67;99476.71;1790245;79;21497;-71
2021/08/30 11:17:36;;;;;;;16.65;9.65;;;;;;;26.34;51.65;99481.25;1783169;79;20982;-70
2021/08/30 11:20:05;;;;;;;14.93;10.08;;;;;;;26.35;51.35;99491.03;1780911;79;20990;-72
2021/08/30 11:22:33;;;;;;;15.53;9.73;;;;;;;26.38;51.05;99499.98;1781309;79;21014;-70
2021/08/30 11:25:04;;;;;;;20.62;11.43;;;;;;;26.38;51.87;99495.88;1780841;79;21017;-70
2021/08/30 11:27:33;;;;;;;16.90;10.20;;;;;;;26.38;51.27;99489.84;1777112;80;20942;-70
2021/08/30 11:30:04;;;;;;;17.62;10.65;;;;;;;26.42;51.37;99472.27;1778933;80;21597;-71
2021/08/30 11:32:37;;;;;;;15.78;10.13;;;;;;;26.52;51.99;99472.55;1775451;79;20962;-72
2021/08/30 11:35:07;;;;;;;13.70;10.23;;;;;;;26.66;51.13;99476.02;1779915;79;20986;-69
2021/08/30 11:37:35;;;;;;;15.93;10.40;;;;;;;26.72;50.55;99475.30;1782317;79;21025;-71
2021/08/30 11:40:09;;;;;;;18.95;9.50;;;;;;;26.70;51.01;99473.45;1781892;79;20958;-70
2021/08/30 11:42:36;;;;;;;13.88;9.63;;;;;;;26.72;50.77;99488.97;1780395;79;21059;-71
2021/08/30 11:45:08;;;;;;;10.58;9.28;;;;;;;26.77;50.49;99489.63;1780976;79;20977;-71